sensor_id;sensor_type;location;lat;lon;timestamp;P1;durP1;ratioP1;P2;durP2;ratioP2
18997;SDS011;9632;51.018;4.284;2023-12-22T00:00:36;22.20;;;3.50;;
18997;SDS011;9632;51.018;4.284;2023-12-22T00:03:01;22.45;;;3.08;;
18997;SDS011;9632;51.018;4.284;2023-12-22T00:05:27;21.95;;;3.20;;
18997;SDS011;9632;51.018;4.284;2023-12-22T00:07:53;22.23;;;3.25;;
18997;SDS011;9632;51.018;4.284;2023-12-22T00:10:18;19.48;;;2.90;;
18997;SDS011;9632;51.018;4.284;2023-12-22T00:12:44;21.27;;;3.08;;
18997;SDS011;9632;51.018;4.284;2023-12-22T00:15:10;22.98;;;3.13;;
18997;SDS011;9632;51.018;4.284;2023-12-22T00:17:35;21.02;;;2.78;;
18997;SDS011;9632;51.018;4.284;2023-12-22T00:20:01;14.57;;;2.42;;
18997;SDS011;9632;51.018;4.284;2023-12-22T00:22:28;21.23;;;2.55;;
18997;SDS011;9632;51.018;4.284;2023-12-22T00:24:54;17.60;;;2.30;;
18997;SDS011;9632;51.018;4.284;2023-12-22T00:27:20;15.77;;;2.15;;
18997;SDS011;9632;51.018;4.284;2023-12-22T00:29:46;17.17;;;1.95;;
18997;SDS011;9632;51.018;4.284;2023-12-22T00:32:11;17.98;;;2.10;;
18997;SDS011;9632;51.018;4.284;2023-12-22T00:34:37;14.18;;;2.28;;
18997;SDS011;9632;51.018;4.284;2023-12-22T00:37:03;18.60;;;2.38;;
18997;SDS011;9632;51.018;4.284;2023-12-22T00:39:29;21.15;;;2.60;;
18997;SDS011;9632;51.018;4.284;2023-12-22T00:41:56;23.40;;;2.78;;
18997;SDS011;9632;51.018;4.284;2023-12-22T00:44:22;16.90;;;2.88;;
18997;SDS011;9632;51.018;4.284;2023-12-22T00:46:48;22.98;;;2.60;;
18997;SDS011;9632;51.018;4.284;2023-12-22T00:49:14;19.00;;;2.50;;
18997;SDS011;9632;51.018;4.284;2023-12-22T00:51:39;30.30;;;3.25;;
18997;SDS011;9632;51.018;4.284;2023-12-22T00:54:05;22.92;;;3.15;;
18997;SDS011;9632;51.018;4.284;2023-12-22T00:56:31;25.35;;;3.10;;
18997;SDS011;9632;51.018;4.284;2023-12-22T00:58:56;27.52;;;3.50;;
18997;SDS011;9632;51.018;4.284;2023-12-22T01:01:22;27.52;;;3.22;;
18997;SDS011;9632;51.018;4.284;2023-12-22T01:03:48;24.08;;;3.60;;
18997;SDS011;9632;51.018;4.284;2023-12-22T01:06:13;29.65;;;3.60;;
18997;SDS011;9632;51.018;4.284;2023-12-22T01:08:39;24.33;;;3.42;;
18997;SDS011;9632;51.018;4.284;2023-12-22T01:11:05;32.25;;;3.40;;
18997;SDS011;9632;51.018;4.284;2023-12-22T01:13:31;28.05;;;4.25;;
18997;SDS011;9632;51.018;4.284;2023-12-22T01:15:56;24.80;;;3.13;;
18997;SDS011;9632;51.018;4.284;2023-12-22T01:18:22;20.65;;;2.85;;
18997;SDS011;9632;51.018;4.284;2023-12-22T01:20:50;26.88;;;3.45;;
18997;SDS011;9632;51.018;4.284;2023-12-22T01:23:15;22.55;;;3.55;;
18997;SDS011;9632;51.018;4.284;2023-12-22T01:25:41;34.28;;;3.75;;
18997;SDS011;9632;51.018;4.284;2023-12-22T01:28:07;29.08;;;3.13;;
18997;SDS011;9632;51.018;4.284;2023-12-22T01:30:32;22.95;;;3.13;;
18997;SDS011;9632;51.018;4.284;2023-12-22T01:32:58;22.20;;;3.38;;
18997;SDS011;9632;51.018;4.284;2023-12-22T01:35:24;24.95;;;3.40;;
18997;SDS011;9632;51.018;4.284;2023-12-22T01:37:49;31.48;;;4.03;;
18997;SDS011;9632;51.018;4.284;2023-12-22T01:40:16;26.73;;;3.60;;
18997;SDS011;9632;51.018;4.284;2023-12-22T01:42:41;21.17;;;2.80;;
18997;SDS011;9632;51.018;4.284;2023-12-22T01:45:07;26.27;;;3.17;;
18997;SDS011;9632;51.018;4.284;2023-12-22T01:47:33;22.35;;;3.20;;
18997;SDS011;9632;51.018;4.284;2023-12-22T01:50:00;33.90;;;4.07;;
18997;SDS011;9632;51.018;4.284;2023-12-22T01:52:26;24.55;;;3.25;;
18997;SDS011;9632;51.018;4.284;2023-12-22T01:54:52;22.95;;;3.85;;
18997;SDS011;9632;51.018;4.284;2023-12-22T01:57:20;30.33;;;3.28;;
18997;SDS011;9632;51.018;4.284;2023-12-22T01:59:46;23.38;;;3.55;;
18997;SDS011;9632;51.018;4.284;2023-12-22T02:02:14;22.35;;;2.85;;
18997;SDS011;9632;51.018;4.284;2023-12-22T02:04:40;28.75;;;3.20;;
18997;SDS011;9632;51.018;4.284;2023-12-22T02:07:06;29.77;;;3.75;;
18997;SDS011;9632;51.018;4.284;2023-12-22T02:09:34;35.90;;;3.60;;
18997;SDS011;9632;51.018;4.284;2023-12-22T02:12:00;22.52;;;3.05;;
18997;SDS011;9632;51.018;4.284;2023-12-22T02:14:26;28.60;;;3.60;;
18997;SDS011;9632;51.018;4.284;2023-12-22T02:16:55;26.58;;;3.83;;
18997;SDS011;9632;51.018;4.284;2023-12-22T02:19:43;22.50;;;3.53;;
18997;SDS011;9632;51.018;4.284;2023-12-22T02:22:11;24.70;;;3.10;;
18997;SDS011;9632;51.018;4.284;2023-12-22T02:24:38;21.25;;;2.38;;
18997;SDS011;9632;51.018;4.284;2023-12-22T02:29:56;16.15;;;2.28;;
18997;SDS011;9632;51.018;4.284;2023-12-22T02:32:30;18.88;;;2.47;;
18997;SDS011;9632;51.018;4.284;2023-12-22T02:34:59;20.98;;;2.72;;
18997;SDS011;9632;51.018;4.284;2023-12-22T02:37:29;20.17;;;2.05;;
18997;SDS011;9632;51.018;4.284;2023-12-22T02:39:57;15.63;;;2.13;;
18997;SDS011;9632;51.018;4.284;2023-12-22T02:42:24;15.30;;;1.98;;
18997;SDS011;9632;51.018;4.284;2023-12-22T02:44:55;18.15;;;2.50;;
18997;SDS011;9632;51.018;4.284;2023-12-22T02:47:24;13.95;;;2.00;;
18997;SDS011;9632;51.018;4.284;2023-12-22T02:49:52;14.15;;;1.88;;
18997;SDS011;9632;51.018;4.284;2023-12-22T02:52:18;14.23;;;2.00;;
18997;SDS011;9632;51.018;4.284;2023-12-22T02:54:44;12.43;;;2.10;;
18997;SDS011;9632;51.018;4.284;2023-12-22T02:57:12;17.40;;;2.40;;
18997;SDS011;9632;51.018;4.284;2023-12-22T02:59:38;20.20;;;3.00;;
18997;SDS011;9632;51.018;4.284;2023-12-22T03:02:04;21.48;;;2.63;;
18997;SDS011;9632;51.018;4.284;2023-12-22T03:04:29;15.50;;;2.20;;
18997;SDS011;9632;51.018;4.284;2023-12-22T03:06:55;21.13;;;2.42;;
18997;SDS011;9632;51.018;4.284;2023-12-22T03:09:21;24.42;;;2.80;;
18997;SDS011;9632;51.018;4.284;2023-12-22T03:11:47;24.38;;;3.15;;
18997;SDS011;9632;51.018;4.284;2023-12-22T03:14:13;19.23;;;2.83;;
18997;SDS011;9632;51.018;4.284;2023-12-22T03:16:39;23.65;;;2.88;;
18997;SDS011;9632;51.018;4.284;2023-12-22T03:19:06;30.00;;;3.72;;
18997;SDS011;9632;51.018;4.284;2023-12-22T03:21:32;23.70;;;3.03;;
18997;SDS011;9632;51.018;4.284;2023-12-22T03:23:57;21.42;;;2.95;;
18997;SDS011;9632;51.018;4.284;2023-12-22T03:26:23;26.23;;;3.25;;
18997;SDS011;9632;51.018;4.284;2023-12-22T03:28:51;24.30;;;2.90;;
18997;SDS011;9632;51.018;4.284;2023-12-22T03:31:17;27.45;;;3.47;;
18997;SDS011;9632;51.018;4.284;2023-12-22T03:33:42;25.67;;;3.75;;
18997;SDS011;9632;51.018;4.284;2023-12-22T03:36:08;30.20;;;3.72;;
18997;SDS011;9632;51.018;4.284;2023-12-22T03:38:33;24.25;;;3.28;;
18997;SDS011;9632;51.018;4.284;2023-12-22T03:40:59;34.05;;;4.00;;
18997;SDS011;9632;51.018;4.284;2023-12-22T03:43:25;31.40;;;3.90;;
18997;SDS011;9632;51.018;4.284;2023-12-22T03:45:50;29.83;;;4.43;;
18997;SDS011;9632;51.018;4.284;2023-12-22T03:48:16;24.58;;;3.20;;
18997;SDS011;9632;51.018;4.284;2023-12-22T03:50:42;29.05;;;3.50;;
18997;SDS011;9632;51.018;4.284;2023-12-22T03:53:07;22.48;;;3.15;;
18997;SDS011;9632;51.018;4.284;2023-12-22T03:55:33;26.73;;;3.72;;
18997;SDS011;9632;51.018;4.284;2023-12-22T03:57:58;23.50;;;3.40;;
18997;SDS011;9632;51.018;4.284;2023-12-22T04:00:24;31.08;;;3.53;;
18997;SDS011;9632;51.018;4.284;2023-12-22T04:02:50;22.48;;;3.20;;
18997;SDS011;9632;51.018;4.284;2023-12-22T04:05:15;30.63;;;4.35;;
18997;SDS011;9632;51.018;4.284;2023-12-22T04:07:41;26.50;;;3.20;;
18997;SDS011;9632;51.018;4.284;2023-12-22T04:10:06;26.63;;;3.15;;
18997;SDS011;9632;51.018;4.284;2023-12-22T04:12:32;27.33;;;3.72;;
18997;SDS011;9632;51.018;4.284;2023-12-22T04:14:58;26.50;;;3.83;;
18997;SDS011;9632;51.018;4.284;2023-12-22T04:17:24;29.52;;;4.00;;
18997;SDS011;9632;51.018;4.284;2023-12-22T04:19:49;31.52;;;4.25;;
18997;SDS011;9632;51.018;4.284;2023-12-22T04:22:15;31.13;;;4.43;;
18997;SDS011;9632;51.018;4.284;2023-12-22T04:24:41;32.92;;;4.43;;
18997;SDS011;9632;51.018;4.284;2023-12-22T04:27:06;38.63;;;5.07;;
18997;SDS011;9632;51.018;4.284;2023-12-22T04:29:32;38.67;;;4.90;;
18997;SDS011;9632;51.018;4.284;2023-12-22T04:31:58;36.75;;;5.40;;
18997;SDS011;9632;51.018;4.284;2023-12-22T04:34:23;32.92;;;4.78;;
18997;SDS011;9632;51.018;4.284;2023-12-22T04:36:49;38.33;;;5.07;;
18997;SDS011;9632;51.018;4.284;2023-12-22T04:39:14;33.88;;;4.55;;
18997;SDS011;9632;51.018;4.284;2023-12-22T04:41:40;33.90;;;4.38;;
18997;SDS011;9632;51.018;4.284;2023-12-22T04:44:06;38.92;;;4.90;;
18997;SDS011;9632;51.018;4.284;2023-12-22T04:46:31;33.92;;;4.90;;
18997;SDS011;9632;51.018;4.284;2023-12-22T04:48:57;44.28;;;5.00;;
18997;SDS011;9632;51.018;4.284;2023-12-22T04:51:23;34.65;;;4.80;;
18997;SDS011;9632;51.018;4.284;2023-12-22T04:53:48;35.78;;;4.82;;
18997;SDS011;9632;51.018;4.284;2023-12-22T04:56:14;43.80;;;4.90;;
18997;SDS011;9632;51.018;4.284;2023-12-22T04:58:40;40.85;;;5.57;;
18997;SDS011;9632;51.018;4.284;2023-12-22T05:01:06;35.47;;;4.95;;
18997;SDS011;9632;51.018;4.284;2023-12-22T05:03:31;37.83;;;4.60;;
18997;SDS011;9632;51.018;4.284;2023-12-22T05:05:57;43.58;;;5.47;;
18997;SDS011;9632;51.018;4.284;2023-12-22T05:08:23;31.92;;;5.07;;
18997;SDS011;9632;51.018;4.284;2023-12-22T05:10:48;36.28;;;5.35;;
18997;SDS011;9632;51.018;4.284;2023-12-22T05:13:14;36.70;;;4.43;;
18997;SDS011;9632;51.018;4.284;2023-12-22T05:15:40;46.55;;;5.55;;
18997;SDS011;9632;51.018;4.284;2023-12-22T05:18:05;38.35;;;5.57;;
18997;SDS011;9632;51.018;4.284;2023-12-22T05:20:31;36.40;;;4.47;;
18997;SDS011;9632;51.018;4.284;2023-12-22T05:22:57;36.95;;;5.35;;
18997;SDS011;9632;51.018;4.284;2023-12-22T05:25:23;43.65;;;5.55;;
18997;SDS011;9632;51.018;4.284;2023-12-22T05:27:49;40.05;;;4.88;;
18997;SDS011;9632;51.018;4.284;2023-12-22T05:30:15;32.90;;;4.35;;
18997;SDS011;9632;51.018;4.284;2023-12-22T05:32:40;40.88;;;4.93;;
18997;SDS011;9632;51.018;4.284;2023-12-22T05:35:06;35.72;;;4.60;;
18997;SDS011;9632;51.018;4.284;2023-12-22T05:37:32;36.60;;;4.72;;
18997;SDS011;9632;51.018;4.284;2023-12-22T05:39:58;37.08;;;4.82;;
18997;SDS011;9632;51.018;4.284;2023-12-22T05:42:23;38.58;;;5.05;;
18997;SDS011;9632;51.018;4.284;2023-12-22T05:44:49;33.38;;;4.30;;
18997;SDS011;9632;51.018;4.284;2023-12-22T05:47:15;32.97;;;4.72;;
18997;SDS011;9632;51.018;4.284;2023-12-22T05:49:41;32.83;;;4.80;;
18997;SDS011;9632;51.018;4.284;2023-12-22T05:52:07;35.38;;;4.72;;
18997;SDS011;9632;51.018;4.284;2023-12-22T05:54:34;38.55;;;4.57;;
18997;SDS011;9632;51.018;4.284;2023-12-22T05:57:00;31.42;;;4.28;;
18997;SDS011;9632;51.018;4.284;2023-12-22T05:59:26;32.97;;;4.78;;
18997;SDS011;9632;51.018;4.284;2023-12-22T06:01:53;26.48;;;4.25;;
18997;SDS011;9632;51.018;4.284;2023-12-22T06:04:19;31.17;;;3.95;;
18997;SDS011;9632;51.018;4.284;2023-12-22T06:06:44;32.35;;;4.55;;
18997;SDS011;9632;51.018;4.284;2023-12-22T06:09:10;35.00;;;4.30;;
18997;SDS011;9632;51.018;4.284;2023-12-22T06:11:38;31.67;;;3.92;;
18997;SDS011;9632;51.018;4.284;2023-12-22T06:14:05;39.35;;;4.63;;
18997;SDS011;9632;51.018;4.284;2023-12-22T06:16:31;33.92;;;3.97;;
18997;SDS011;9632;51.018;4.284;2023-12-22T06:18:56;37.60;;;4.95;;
18997;SDS011;9632;51.018;4.284;2023-12-22T06:21:22;25.52;;;3.65;;
18997;SDS011;9632;51.018;4.284;2023-12-22T06:23:47;29.02;;;4.05;;
18997;SDS011;9632;51.018;4.284;2023-12-22T06:26:13;31.48;;;4.10;;
18997;SDS011;9632;51.018;4.284;2023-12-22T06:28:39;27.23;;;3.55;;
18997;SDS011;9632;51.018;4.284;2023-12-22T06:31:05;29.00;;;3.60;;
18997;SDS011;9632;51.018;4.284;2023-12-22T06:33:31;25.42;;;3.78;;
18997;SDS011;9632;51.018;4.284;2023-12-22T06:35:57;24.40;;;3.45;;
18997;SDS011;9632;51.018;4.284;2023-12-22T06:38:23;25.13;;;3.67;;
18997;SDS011;9632;51.018;4.284;2023-12-22T06:40:48;27.58;;;3.10;;
18997;SDS011;9632;51.018;4.284;2023-12-22T06:43:15;27.17;;;3.55;;
18997;SDS011;9632;51.018;4.284;2023-12-22T06:45:41;19.23;;;3.00;;
18997;SDS011;9632;51.018;4.284;2023-12-22T06:48:07;18.88;;;2.60;;
18997;SDS011;9632;51.018;4.284;2023-12-22T06:50:34;20.75;;;2.95;;
18997;SDS011;9632;51.018;4.284;2023-12-22T06:53:02;28.02;;;3.42;;
18997;SDS011;9632;51.018;4.284;2023-12-22T06:55:27;21.23;;;3.38;;
18997;SDS011;9632;51.018;4.284;2023-12-22T06:57:54;28.05;;;3.22;;
18997;SDS011;9632;51.018;4.284;2023-12-22T07:00:20;23.27;;;3.20;;
18997;SDS011;9632;51.018;4.284;2023-12-22T07:02:46;25.00;;;2.80;;
18997;SDS011;9632;51.018;4.284;2023-12-22T07:07:46;20.40;;;3.03;;
18997;SDS011;9632;51.018;4.284;2023-12-22T07:10:12;25.45;;;2.90;;
18997;SDS011;9632;51.018;4.284;2023-12-22T07:12:37;22.25;;;3.40;;
18997;SDS011;9632;51.018;4.284;2023-12-22T07:15:04;17.33;;;2.47;;
18997;SDS011;9632;51.018;4.284;2023-12-22T07:17:32;17.77;;;2.60;;
18997;SDS011;9632;51.018;4.284;2023-12-22T07:19:57;14.10;;;1.80;;
18997;SDS011;9632;51.018;4.284;2023-12-22T07:22:23;15.68;;;2.22;;
18997;SDS011;9632;51.018;4.284;2023-12-22T07:24:49;16.40;;;1.95;;
18997;SDS011;9632;51.018;4.284;2023-12-22T07:27:16;17.58;;;2.30;;
18997;SDS011;9632;51.018;4.284;2023-12-22T07:29:42;21.70;;;2.55;;
18997;SDS011;9632;51.018;4.284;2023-12-22T07:32:08;9.20;;;1.80;;
18997;SDS011;9632;51.018;4.284;2023-12-22T07:34:33;15.27;;;2.33;;
18997;SDS011;9632;51.018;4.284;2023-12-22T07:36:59;17.05;;;2.28;;
18997;SDS011;9632;51.018;4.284;2023-12-22T07:39:25;15.77;;;2.70;;
18997;SDS011;9632;51.018;4.284;2023-12-22T07:41:50;12.40;;;2.10;;
18997;SDS011;9632;51.018;4.284;2023-12-22T07:44:16;20.55;;;2.88;;
18997;SDS011;9632;51.018;4.284;2023-12-22T07:46:41;11.88;;;2.20;;
18997;SDS011;9632;51.018;4.284;2023-12-22T07:49:07;17.67;;;2.58;;
18997;SDS011;9632;51.018;4.284;2023-12-22T07:51:33;10.75;;;2.33;;
18997;SDS011;9632;51.018;4.284;2023-12-22T07:53:59;15.27;;;2.50;;
18997;SDS011;9632;51.018;4.284;2023-12-22T07:56:24;16.30;;;2.90;;
18997;SDS011;9632;51.018;4.284;2023-12-22T07:58:50;12.23;;;2.47;;
18997;SDS011;9632;51.018;4.284;2023-12-22T08:01:15;13.15;;;3.17;;
18997;SDS011;9632;51.018;4.284;2023-12-22T08:03:41;10.18;;;2.60;;
18997;SDS011;9632;51.018;4.284;2023-12-22T08:06:07;11.02;;;2.88;;
18997;SDS011;9632;51.018;4.284;2023-12-22T08:08:33;11.00;;;3.28;;
18997;SDS011;9632;51.018;4.284;2023-12-22T08:10:59;9.88;;;2.70;;
18997;SDS011;9632;51.018;4.284;2023-12-22T08:13:25;7.78;;;2.80;;
18997;SDS011;9632;51.018;4.284;2023-12-22T08:15:51;9.23;;;2.97;;
18997;SDS011;9632;51.018;4.284;2023-12-22T08:18:16;15.25;;;3.50;;
18997;SDS011;9632;51.018;4.284;2023-12-22T08:20:42;10.75;;;3.42;;
18997;SDS011;9632;51.018;4.284;2023-12-22T08:23:08;9.98;;;3.28;;
18997;SDS011;9632;51.018;4.284;2023-12-22T08:25:33;11.27;;;3.90;;
18997;SDS011;9632;51.018;4.284;2023-12-22T08:27:59;8.90;;;3.78;;
18997;SDS011;9632;51.018;4.284;2023-12-22T08:30:26;8.75;;;3.65;;
18997;SDS011;9632;51.018;4.284;2023-12-22T08:32:51;9.90;;;4.03;;
18997;SDS011;9632;51.018;4.284;2023-12-22T08:35:18;11.25;;;4.18;;
18997;SDS011;9632;51.018;4.284;2023-12-22T08:37:44;9.27;;;4.00;;
18997;SDS011;9632;51.018;4.284;2023-12-22T08:40:10;10.60;;;4.90;;
18997;SDS011;9632;51.018;4.284;2023-12-22T08:42:35;16.17;;;5.50;;
18997;SDS011;9632;51.018;4.284;2023-12-22T08:45:01;13.65;;;5.00;;
18997;SDS011;9632;51.018;4.284;2023-12-22T08:47:27;13.23;;;5.43;;
18997;SDS011;9632;51.018;4.284;2023-12-22T08:49:53;8.93;;;4.70;;
18997;SDS011;9632;51.018;4.284;2023-12-22T08:52:18;12.48;;;5.47;;
18997;SDS011;9632;51.018;4.284;2023-12-22T08:54:44;15.93;;;5.40;;
18997;SDS011;9632;51.018;4.284;2023-12-22T08:57:10;13.60;;;5.43;;
18997;SDS011;9632;51.018;4.284;2023-12-22T08:59:35;18.08;;;5.72;;
18997;SDS011;9632;51.018;4.284;2023-12-22T09:02:01;16.67;;;4.90;;
18997;SDS011;9632;51.018;4.284;2023-12-22T09:04:27;13.15;;;4.72;;
18997;SDS011;9632;51.018;4.284;2023-12-22T09:06:53;16.13;;;4.65;;
18997;SDS011;9632;51.018;4.284;2023-12-22T09:09:18;15.32;;;4.55;;
18997;SDS011;9632;51.018;4.284;2023-12-22T09:11:46;13.00;;;4.25;;
18997;SDS011;9632;51.018;4.284;2023-12-22T09:14:11;18.08;;;3.78;;
18997;SDS011;9632;51.018;4.284;2023-12-22T09:16:37;14.80;;;3.60;;
18997;SDS011;9632;51.018;4.284;2023-12-22T09:19:03;15.05;;;3.95;;
18997;SDS011;9632;51.018;4.284;2023-12-22T09:21:31;14.20;;;3.63;;
18997;SDS011;9632;51.018;4.284;2023-12-22T09:23:57;13.02;;;3.58;;
18997;SDS011;9632;51.018;4.284;2023-12-22T09:26:22;18.15;;;3.15;;
18997;SDS011;9632;51.018;4.284;2023-12-22T09:28:48;11.82;;;2.60;;
18997;SDS011;9632;51.018;4.284;2023-12-22T09:31:14;11.40;;;2.55;;
18997;SDS011;9632;51.018;4.284;2023-12-22T09:33:40;14.45;;;2.30;;
18997;SDS011;9632;51.018;4.284;2023-12-22T09:36:07;13.95;;;2.35;;
18997;SDS011;9632;51.018;4.284;2023-12-22T09:38:33;12.60;;;2.20;;
18997;SDS011;9632;51.018;4.284;2023-12-22T09:40:58;9.23;;;1.50;;
18997;SDS011;9632;51.018;4.284;2023-12-22T09:43:26;10.63;;;1.65;;
18997;SDS011;9632;51.018;4.284;2023-12-22T09:45:52;11.48;;;1.50;;
18997;SDS011;9632;51.018;4.284;2023-12-22T09:48:18;12.88;;;1.67;;
18997;SDS011;9632;51.018;4.284;2023-12-22T09:50:51;5.38;;;1.10;;
18997;SDS011;9632;51.018;4.284;2023-12-22T09:53:18;8.60;;;1.02;;
18997;SDS011;9632;51.018;4.284;2023-12-22T09:55:46;10.15;;;1.30;;
18997;SDS011;9632;51.018;4.284;2023-12-22T09:58:14;8.88;;;1.20;;
18997;SDS011;9632;51.018;4.284;2023-12-22T10:00:41;7.10;;;0.98;;
18997;SDS011;9632;51.018;4.284;2023-12-22T10:03:07;7.35;;;0.85;;
18997;SDS011;9632;51.018;4.284;2023-12-22T10:05:35;7.20;;;0.73;;
18997;SDS011;9632;51.018;4.284;2023-12-22T10:08:02;5.78;;;0.70;;
18997;SDS011;9632;51.018;4.284;2023-12-22T10:10:29;5.65;;;1.00;;
18997;SDS011;9632;51.018;4.284;2023-12-22T10:12:56;8.88;;;0.98;;
18997;SDS011;9632;51.018;4.284;2023-12-22T10:15:23;5.45;;;0.77;;
18997;SDS011;9632;51.018;4.284;2023-12-22T10:17:50;5.90;;;0.77;;
18997;SDS011;9632;51.018;4.284;2023-12-22T10:20:17;5.03;;;0.77;;
18997;SDS011;9632;51.018;4.284;2023-12-22T10:22:42;7.07;;;0.70;;
18997;SDS011;9632;51.018;4.284;2023-12-22T10:25:08;5.53;;;0.80;;
18997;SDS011;9632;51.018;4.284;2023-12-22T10:27:35;8.32;;;1.10;;
18997;SDS011;9632;51.018;4.284;2023-12-22T10:30:02;7.07;;;0.65;;
18997;SDS011;9632;51.018;4.284;2023-12-22T10:32:29;6.97;;;0.80;;
18997;SDS011;9632;51.018;4.284;2023-12-22T10:34:55;4.28;;;0.80;;
18997;SDS011;9632;51.018;4.284;2023-12-22T10:37:22;6.32;;;1.25;;
18997;SDS011;9632;51.018;4.284;2023-12-22T10:39:51;9.43;;;1.77;;
18997;SDS011;9632;51.018;4.284;2023-12-22T10:42:18;13.35;;;1.05;;
18997;SDS011;9632;51.018;4.284;2023-12-22T10:44:43;8.32;;;0.90;;
18997;SDS011;9632;51.018;4.284;2023-12-22T10:47:10;6.43;;;0.88;;
18997;SDS011;9632;51.018;4.284;2023-12-22T10:49:36;7.28;;;0.88;;
18997;SDS011;9632;51.018;4.284;2023-12-22T10:52:02;7.65;;;0.90;;
18997;SDS011;9632;51.018;4.284;2023-12-22T10:54:28;11.25;;;1.00;;
18997;SDS011;9632;51.018;4.284;2023-12-22T10:56:58;4.57;;;0.68;;
18997;SDS011;9632;51.018;4.284;2023-12-22T10:59:25;7.95;;;0.80;;
18997;SDS011;9632;51.018;4.284;2023-12-22T11:01:56;3.58;;;0.63;;
18997;SDS011;9632;51.018;4.284;2023-12-22T11:04:22;6.72;;;0.80;;
18997;SDS011;9632;51.018;4.284;2023-12-22T11:06:54;5.75;;;0.80;;
18997;SDS011;9632;51.018;4.284;2023-12-22T11:09:23;6.53;;;0.90;;
18997;SDS011;9632;51.018;4.284;2023-12-22T11:11:51;12.73;;;1.00;;
18997;SDS011;9632;51.018;4.284;2023-12-22T11:14:18;7.13;;;0.90;;
18997;SDS011;9632;51.018;4.284;2023-12-22T11:16:44;4.78;;;0.70;;
18997;SDS011;9632;51.018;4.284;2023-12-22T11:19:13;10.40;;;1.00;;
18997;SDS011;9632;51.018;4.284;2023-12-22T11:21:40;5.80;;;1.00;;
18997;SDS011;9632;51.018;4.284;2023-12-22T11:24:06;7.43;;;0.60;;
18997;SDS011;9632;51.018;4.284;2023-12-22T11:26:33;5.82;;;0.70;;
18997;SDS011;9632;51.018;4.284;2023-12-22T11:28:59;10.57;;;0.60;;
18997;SDS011;9632;51.018;4.284;2023-12-22T11:31:27;5.75;;;0.93;;
18997;SDS011;9632;51.018;4.284;2023-12-22T11:33:57;3.30;;;0.90;;
18997;SDS011;9632;51.018;4.284;2023-12-22T11:36:24;2.35;;;0.50;;
18997;SDS011;9632;51.018;4.284;2023-12-22T11:38:50;7.50;;;0.60;;
18997;SDS011;9632;51.018;4.284;2023-12-22T11:41:20;9.05;;;0.73;;
18997;SDS011;9632;51.018;4.284;2023-12-22T11:43:49;4.30;;;0.50;;
18997;SDS011;9632;51.018;4.284;2023-12-22T11:46:16;3.13;;;0.50;;
18997;SDS011;9632;51.018;4.284;2023-12-22T11:48:48;8.98;;;0.60;;
18997;SDS011;9632;51.018;4.284;2023-12-22T11:51:16;5.10;;;0.90;;
18997;SDS011;9632;51.018;4.284;2023-12-22T11:53:42;4.57;;;0.60;;
18997;SDS011;9632;51.018;4.284;2023-12-22T11:56:08;7.25;;;1.02;;
18997;SDS011;9632;51.018;4.284;2023-12-22T12:01:05;8.68;;;0.98;;
18997;SDS011;9632;51.018;4.284;2023-12-22T12:03:35;6.50;;;0.70;;
18997;SDS011;9632;51.018;4.284;2023-12-22T12:06:13;9.05;;;0.68;;
18997;SDS011;9632;51.018;4.284;2023-12-22T12:08:41;6.82;;;1.05;;
18997;SDS011;9632;51.018;4.284;2023-12-22T12:11:07;4.63;;;0.50;;
18997;SDS011;9632;51.018;4.284;2023-12-22T12:13:33;6.22;;;0.68;;
18997;SDS011;9632;51.018;4.284;2023-12-22T12:15:59;4.70;;;0.57;;
18997;SDS011;9632;51.018;4.284;2023-12-22T12:18:29;5.70;;;0.70;;
18997;SDS011;9632;51.018;4.284;2023-12-22T12:20:56;7.82;;;0.80;;
18997;SDS011;9632;51.018;4.284;2023-12-22T12:23:26;7.85;;;0.70;;
18997;SDS011;9632;51.018;4.284;2023-12-22T12:25:53;5.18;;;0.90;;
18997;SDS011;9632;51.018;4.284;2023-12-22T12:28:29;8.32;;;1.08;;
18997;SDS011;9632;51.018;4.284;2023-12-22T12:31:00;7.55;;;0.80;;
18997;SDS011;9632;51.018;4.284;2023-12-22T12:33:33;6.65;;;0.90;;
18997;SDS011;9632;51.018;4.284;2023-12-22T12:36:00;6.07;;;0.60;;
18997;SDS011;9632;51.018;4.284;2023-12-22T12:38:36;6.70;;;0.90;;
18997;SDS011;9632;51.018;4.284;2023-12-22T12:41:06;5.22;;;0.88;;
18997;SDS011;9632;51.018;4.284;2023-12-22T12:43:34;6.75;;;1.00;;
18997;SDS011;9632;51.018;4.284;2023-12-22T12:46:03;9.82;;;0.80;;
18997;SDS011;9632;51.018;4.284;2023-12-22T12:48:30;5.72;;;0.82;;
18997;SDS011;9632;51.018;4.284;2023-12-22T12:51:00;7.32;;;0.80;;
18997;SDS011;9632;51.018;4.284;2023-12-22T12:53:27;6.95;;;0.80;;
18997;SDS011;9632;51.018;4.284;2023-12-22T12:55:57;6.60;;;0.95;;
18997;SDS011;9632;51.018;4.284;2023-12-22T12:58:29;5.43;;;0.70;;
18997;SDS011;9632;51.018;4.284;2023-12-22T13:01:06;9.13;;;0.82;;
18997;SDS011;9632;51.018;4.284;2023-12-22T13:03:33;9.52;;;0.80;;
18997;SDS011;9632;51.018;4.284;2023-12-22T13:06:16;5.65;;;1.08;;
18997;SDS011;9632;51.018;4.284;2023-12-22T13:08:47;3.20;;;0.68;;
18997;SDS011;9632;51.018;4.284;2023-12-22T13:11:19;7.13;;;0.80;;
18997;SDS011;9632;51.018;4.284;2023-12-22T13:13:46;9.57;;;1.10;;
18997;SDS011;9632;51.018;4.284;2023-12-22T13:16:12;4.60;;;0.60;;
18997;SDS011;9632;51.018;4.284;2023-12-22T13:18:38;7.75;;;1.10;;
18997;SDS011;9632;51.018;4.284;2023-12-22T13:21:03;5.55;;;0.90;;
18997;SDS011;9632;51.018;4.284;2023-12-22T13:23:29;8.60;;;1.55;;
18997;SDS011;9632;51.018;4.284;2023-12-22T13:25:55;8.25;;;0.85;;
18997;SDS011;9632;51.018;4.284;2023-12-22T13:28:25;6.35;;;0.70;;
18997;SDS011;9632;51.018;4.284;2023-12-22T13:30:52;7.57;;;1.95;;
18997;SDS011;9632;51.018;4.284;2023-12-22T13:33:18;6.18;;;0.85;;
18997;SDS011;9632;51.018;4.284;2023-12-22T13:35:43;9.05;;;0.82;;
18997;SDS011;9632;51.018;4.284;2023-12-22T13:38:11;4.95;;;0.80;;
18997;SDS011;9632;51.018;4.284;2023-12-22T13:40:37;7.28;;;0.80;;
18997;SDS011;9632;51.018;4.284;2023-12-22T13:43:04;8.38;;;1.00;;
18997;SDS011;9632;51.018;4.284;2023-12-22T13:45:30;8.65;;;1.08;;
18997;SDS011;9632;51.018;4.284;2023-12-22T13:47:56;8.70;;;1.13;;
18997;SDS011;9632;51.018;4.284;2023-12-22T13:50:22;5.35;;;0.80;;
18997;SDS011;9632;51.018;4.284;2023-12-22T13:52:48;7.97;;;0.80;;
18997;SDS011;9632;51.018;4.284;2023-12-22T13:55:16;5.50;;;1.00;;
18997;SDS011;9632;51.018;4.284;2023-12-22T13:57:43;7.35;;;0.70;;
18997;SDS011;9632;51.018;4.284;2023-12-22T14:02:47;6.63;;;1.05;;
18997;SDS011;9632;51.018;4.284;2023-12-22T14:05:17;4.85;;;0.73;;
18997;SDS011;9632;51.018;4.284;2023-12-22T14:07:43;3.65;;;0.80;;
18997;SDS011;9632;51.018;4.284;2023-12-22T14:10:09;7.72;;;1.10;;
18997;SDS011;9632;51.018;4.284;2023-12-22T14:12:36;6.75;;;0.75;;
18997;SDS011;9632;51.018;4.284;2023-12-22T14:15:08;6.22;;;0.77;;
18997;SDS011;9632;51.018;4.284;2023-12-22T14:17:35;11.63;;;0.90;;
18997;SDS011;9632;51.018;4.284;2023-12-22T14:20:01;7.53;;;0.93;;
18997;SDS011;9632;51.018;4.284;2023-12-22T14:22:27;8.10;;;0.95;;
18997;SDS011;9632;51.018;4.284;2023-12-22T14:24:53;5.15;;;0.75;;
18997;SDS011;9632;51.018;4.284;2023-12-22T14:27:18;6.55;;;0.95;;
18997;SDS011;9632;51.018;4.284;2023-12-22T14:29:48;5.80;;;0.88;;
18997;SDS011;9632;51.018;4.284;2023-12-22T14:32:13;5.15;;;0.90;;
18997;SDS011;9632;51.018;4.284;2023-12-22T14:34:44;5.72;;;0.85;;
18997;SDS011;9632;51.018;4.284;2023-12-22T14:37:10;9.18;;;0.90;;
18997;SDS011;9632;51.018;4.284;2023-12-22T14:39:36;5.97;;;0.60;;
18997;SDS011;9632;51.018;4.284;2023-12-22T14:42:02;6.38;;;0.68;;
18997;SDS011;9632;51.018;4.284;2023-12-22T14:44:28;5.88;;;0.75;;
18997;SDS011;9632;51.018;4.284;2023-12-22T14:46:54;5.40;;;0.70;;
18997;SDS011;9632;51.018;4.284;2023-12-22T14:49:19;6.55;;;0.98;;
18997;SDS011;9632;51.018;4.284;2023-12-22T14:51:45;6.80;;;1.08;;
18997;SDS011;9632;51.018;4.284;2023-12-22T14:54:18;7.93;;;0.90;;
18997;SDS011;9632;51.018;4.284;2023-12-22T14:56:44;5.97;;;0.60;;
18997;SDS011;9632;51.018;4.284;2023-12-22T14:59:10;5.50;;;0.90;;